createdAt,value
2018-11-28T00:00:15.245Z,30.20
2018-11-28T00:02:44.164Z,29.92
2018-11-28T00:05:13.251Z,30.45
2018-11-28T00:07:57.063Z,29.80
2018-11-28T00:10:25.964Z,28.10
2018-11-28T00:12:54.879Z,30.50
2018-11-28T00:15:23.784Z,27.62
2018-11-28T00:17:52.742Z,29.87
2018-11-28T00:20:22.567Z,28.35
2018-11-28T00:22:51.516Z,30.50
2018-11-28T00:25:20.610Z,30.30
2018-11-28T00:27:49.540Z,29.90
2018-11-28T00:30:21.989Z,29.55
2018-11-28T00:32:50.930Z,31.10
2018-11-28T00:35:22.792Z,30.08
2018-11-28T00:37:51.714Z,29.30
2018-11-28T00:40:21.847Z,29.25
2018-11-28T00:42:50.973Z,31.25
2018-11-28T00:45:21.668Z,30.50
2018-11-28T00:47:50.599Z,31.52
2018-11-28T00:50:20.624Z,30.48
2018-11-28T00:52:49.556Z,31.75
2018-11-28T00:55:18.771Z,34.35
2018-11-28T00:57:47.704Z,33.10
2018-11-28T01:00:27.937Z,32.73
2018-11-28T01:02:56.839Z,33.50
2018-11-28T01:05:25.788Z,33.65
2018-11-28T01:07:55.496Z,34.10
2018-11-28T01:10:25.239Z,33.98
2018-11-28T01:12:54.493Z,32.13
2018-11-28T01:15:23.435Z,34.65
2018-11-28T01:17:52.355Z,33.10
2018-11-28T01:20:22.419Z,35.25
2018-11-28T01:22:51.327Z,34.33
2018-11-28T01:25:20.870Z,33.35
2018-11-28T01:27:50.227Z,35.38
2018-11-28T01:30:21.270Z,35.28
2018-11-28T01:32:50.251Z,33.58
2018-11-28T01:35:19.955Z,35.00
2018-11-28T01:37:48.872Z,35.13
2018-11-28T01:40:20.480Z,36.33
2018-11-28T01:42:49.431Z,35.17
2018-11-28T01:45:19.411Z,36.50
2018-11-28T01:47:48.326Z,34.57
2018-11-28T01:50:18.143Z,33.70
2018-11-28T01:52:47.058Z,34.98
2018-11-28T01:55:20.375Z,32.45
2018-11-28T01:57:49.304Z,34.50
2018-11-28T02:00:22.304Z,32.65
2018-11-28T02:02:58.619Z,32.90
2018-11-28T02:05:27.531Z,34.53
2018-11-28T02:07:56.430Z,35.23
2018-11-28T02:10:25.341Z,35.38
2018-11-28T02:12:55.236Z,33.50
2018-11-28T02:15:28.512Z,35.28
2018-11-28T02:17:58.104Z,33.33
2018-11-28T02:20:27.020Z,35.90
2018-11-28T02:22:55.911Z,35.23
2018-11-28T02:25:24.844Z,35.38
2018-11-28T02:27:53.732Z,36.50
2018-11-28T02:30:22.672Z,33.00
2018-11-28T02:32:51.569Z,36.47
2018-11-28T02:35:20.496Z,37.75
2018-11-28T02:37:49.745Z,35.50
2018-11-28T02:40:19.385Z,35.78
2018-11-28T02:42:49.420Z,37.70
2018-11-28T02:45:20.947Z,35.90
2018-11-28T02:47:50.320Z,37.38
2018-11-28T02:50:19.254Z,37.28
2018-11-28T02:52:48.147Z,36.93
2018-11-28T02:55:17.831Z,37.28
2018-11-28T02:57:47.814Z,38.28
2018-11-28T03:00:26.467Z,37.30
2018-11-28T03:02:55.369Z,37.90
2018-11-28T03:05:24.291Z,37.75
2018-11-28T03:07:53.184Z,36.75
2018-11-28T03:10:22.987Z,37.25
2018-11-28T03:12:51.897Z,37.88
2018-11-28T03:15:28.280Z,39.70
2018-11-28T03:17:57.177Z,39.92
2018-11-28T03:20:26.110Z,37.55
2018-11-28T03:22:55.032Z,35.85
2018-11-28T03:25:23.932Z,37.40
2018-11-28T03:27:52.828Z,38.73
2018-11-28T03:30:21.800Z,36.40
2018-11-28T03:32:50.692Z,37.90
2018-11-28T03:35:19.607Z,36.35
2018-11-28T03:37:48.535Z,37.88
2018-11-28T03:40:17.456Z,38.50
2018-11-28T03:42:46.340Z,39.98
2018-11-28T03:45:16.646Z,37.03
2018-11-28T03:47:45.942Z,37.83
2018-11-28T03:50:15.611Z,38.70
2018-11-28T03:52:44.511Z,37.90
2018-11-28T03:55:14.730Z,37.98
2018-11-28T03:57:44.717Z,37.20
2018-11-28T04:00:16.619Z,38.02
2018-11-28T04:02:45.527Z,37.17
2018-11-28T04:05:14.480Z,38.25
2018-11-28T04:07:43.343Z,38.23
2018-11-28T04:10:13.996Z,38.85
2018-11-28T04:12:43.584Z,38.17
2018-11-28T04:15:20.478Z,38.08
2018-11-28T04:17:49.379Z,36.67
2018-11-28T04:20:23.102Z,37.25
2018-11-28T04:22:52.214Z,37.23
2018-11-28T04:25:22.688Z,35.87
2018-11-28T04:27:51.967Z,38.10
2018-11-28T04:30:21.908Z,36.88
2018-11-28T04:32:51.503Z,40.17
2018-11-28T04:35:20.409Z,38.00
2018-11-28T04:37:49.345Z,36.60
2018-11-28T04:40:20.037Z,36.33
2018-11-28T04:42:50.232Z,38.08
2018-11-28T04:45:20.067Z,36.65
2018-11-28T04:47:49.109Z,36.17
2018-11-28T04:50:18.030Z,34.98
2018-11-28T04:52:46.938Z,35.70
2018-11-28T04:55:16.882Z,34.50
2018-11-28T04:57:45.873Z,35.53
2018-11-28T05:00:25.869Z,34.05
2018-11-28T05:02:56.001Z,34.83
2018-11-28T05:05:24.968Z,35.00
2018-11-28T05:07:54.259Z,35.15
2018-11-28T05:10:29.178Z,35.50
2018-11-28T05:12:59.030Z,36.03
2018-11-28T05:15:28.990Z,37.10
2018-11-28T05:17:57.919Z,38.00
2018-11-28T05:20:28.760Z,36.00
2018-11-28T05:22:57.706Z,37.07
2018-11-28T05:25:28.224Z,34.23
2018-11-28T05:27:58.700Z,37.95
2018-11-28T05:30:28.640Z,36.55
2018-11-28T05:32:57.566Z,37.00
2018-11-28T05:35:34.449Z,35.78
2018-11-28T05:38:05.660Z,36.40
2018-11-28T05:40:34.591Z,36.83
2018-11-28T05:43:03.543Z,38.73
2018-11-28T05:45:32.468Z,36.07
2018-11-28T05:48:01.406Z,36.58
2018-11-28T05:50:30.352Z,35.60
2018-11-28T05:52:59.301Z,33.80
2018-11-28T05:55:28.223Z,35.50
2018-11-28T05:57:57.621Z,34.98
2018-11-28T06:00:36.989Z,35.75
2018-11-28T06:03:07.267Z,35.13
2018-11-28T06:05:36.249Z,34.98
2018-11-28T06:08:05.310Z,35.60
2018-11-28T06:10:34.227Z,35.50
2018-11-28T06:13:03.193Z,35.97
2018-11-28T06:15:32.199Z,34.83
2018-11-28T06:18:01.149Z,35.20
2018-11-28T06:20:30.100Z,35.03
2018-11-28T06:22:59.048Z,34.45
2018-11-28T06:25:27.967Z,34.30
2018-11-28T06:27:56.891Z,52.43
2018-11-28T06:30:26.079Z,34.20
2018-11-28T06:32:55.019Z,36.10
2018-11-28T06:35:23.947Z,36.58
2018-11-28T06:37:52.909Z,36.93
2018-11-28T06:40:24.255Z,36.17
2018-11-28T06:42:50.762Z,35.90
2018-11-28T06:45:21.034Z,35.58
2018-11-28T06:47:49.960Z,35.00
2018-11-28T06:50:19.580Z,33.63
2018-11-28T06:52:49.615Z,36.13
2018-11-28T06:55:19.605Z,36.10
2018-11-28T06:57:48.535Z,36.77
2018-11-28T07:00:18.456Z,34.10
2018-11-28T07:02:48.042Z,32.85
2018-11-28T07:05:16.921Z,32.20
2018-11-28T07:07:45.866Z,32.43
2018-11-28T07:10:17.584Z,33.08
2018-11-28T07:12:46.524Z,31.77
2018-11-28T07:15:17.283Z,31.85
2018-11-28T07:17:46.223Z,31.37
2018-11-28T07:20:15.876Z,33.50
2018-11-28T07:22:44.801Z,32.25
2018-11-28T07:25:14.789Z,31.93
2018-11-28T07:27:45.425Z,31.33
2018-11-28T07:30:14.004Z,31.90
2018-11-28T07:32:43.014Z,32.13
2018-11-28T07:35:12.613Z,32.67
2018-11-28T07:37:41.552Z,31.80
2018-11-28T07:40:13.872Z,31.20
2018-11-28T07:42:44.511Z,31.80
2018-11-28T07:45:13.586Z,30.92
2018-11-28T07:47:42.464Z,30.83
2018-11-28T07:50:11.467Z,33.28
2018-11-28T07:52:40.380Z,31.77
2018-11-28T07:55:11.449Z,32.05
2018-11-28T07:57:40.612Z,34.87
2018-11-28T08:00:12.885Z,30.90
2018-11-28T08:02:42.116Z,31.63
2018-11-28T08:05:11.695Z,33.07
2018-11-28T08:07:40.644Z,32.58
2018-11-28T08:10:15.992Z,32.83
2018-11-28T08:12:44.912Z,32.05
2018-11-28T08:15:13.875Z,32.77
2018-11-28T08:17:43.403Z,30.37
2018-11-28T08:20:12.331Z,30.10
2018-11-28T08:22:41.259Z,31.93
2018-11-28T08:25:15.299Z,31.23
2018-11-28T08:27:46.329Z,29.55
2018-11-28T08:30:23.089Z,30.60
2018-11-28T08:32:52.308Z,30.67
2018-11-28T08:35:21.284Z,30.57
2018-11-28T08:37:50.213Z,29.98
2018-11-28T08:40:20.436Z,28.85
2018-11-28T08:42:49.403Z,27.73
2018-11-28T08:45:19.249Z,29.12
2018-11-28T08:47:49.244Z,28.87
2018-11-28T08:50:23.211Z,29.40
2018-11-28T08:52:52.151Z,29.73
2018-11-28T08:55:21.066Z,30.12
2018-11-28T08:57:50.008Z,30.50
2018-11-28T09:00:20.867Z,31.30
2018-11-28T09:02:51.080Z,27.20
2018-11-28T09:05:20.176Z,26.73
2018-11-28T09:07:50.130Z,29.52
2018-11-28T09:10:19.866Z,30.02
2018-11-28T09:12:49.372Z,29.40
2018-11-28T09:15:22.456Z,26.70
2018-11-28T09:17:51.477Z,29.67
2018-11-28T09:20:20.341Z,27.10
2018-11-28T09:22:49.344Z,28.17
2018-11-28T09:25:19.882Z,28.32
2018-11-28T09:27:50.733Z,26.35
2018-11-28T09:30:20.195Z,27.50
2018-11-28T09:32:49.952Z,25.63
2018-11-28T09:35:19.316Z,22.53
2018-11-28T09:37:48.267Z,22.30
2018-11-28T09:40:24.243Z,23.22
2018-11-28T09:42:54.305Z,22.63
2018-11-28T09:45:23.240Z,21.27
2018-11-28T09:47:52.180Z,22.17
2018-11-28T09:50:22.048Z,21.27
2018-11-28T09:52:50.996Z,21.73
2018-11-28T09:55:28.441Z,21.77
2018-11-28T09:57:58.061Z,22.58
2018-11-28T10:00:27.872Z,21.77
2018-11-28T10:03:00.713Z,22.90
2018-11-28T10:05:30.652Z,23.02
2018-11-28T10:07:59.666Z,22.53
2018-11-28T10:10:28.680Z,22.20
2018-11-28T10:12:57.630Z,22.85
2018-11-28T10:15:27.540Z,22.35
2018-11-28T10:20:54.432Z,20.75
2018-11-28T10:23:23.357Z,22.50
2018-11-28T10:25:52.283Z,23.20
2018-11-28T10:28:21.243Z,22.07
2018-11-28T10:30:50.163Z,23.62
2018-11-28T10:33:19.103Z,23.65
2018-11-28T10:35:48.208Z,21.80
2018-11-28T10:38:17.159Z,22.87
2018-11-28T10:40:46.071Z,22.17
2018-11-28T10:43:15.027Z,22.00
2018-11-28T10:45:43.952Z,24.00
2018-11-28T10:48:12.928Z,23.45
2018-11-28T10:50:41.862Z,22.60
2018-11-28T10:53:10.809Z,23.63
2018-11-28T10:55:39.745Z,22.43
2018-11-28T10:58:09.226Z,23.22
2018-11-28T11:00:43.503Z,23.20
2018-11-28T11:03:18.671Z,23.12
2018-11-28T11:05:53.022Z,23.10
2018-11-28T11:08:24.784Z,22.67
2018-11-28T11:10:59.028Z,24.57
2018-11-28T11:13:34.003Z,21.77
2018-11-28T11:16:02.952Z,22.35
2018-11-28T11:18:31.895Z,25.47
2018-11-28T11:21:00.819Z,25.50
2018-11-28T11:23:29.770Z,25.52
2018-11-28T11:25:58.690Z,22.60
2018-11-28T11:28:27.632Z,23.17
2018-11-28T11:30:56.552Z,23.60
2018-11-28T11:33:25.472Z,23.32
2018-11-28T11:38:51.011Z,22.80
2018-11-28T11:41:19.911Z,23.30
2018-11-28T11:43:48.861Z,24.10
2018-11-28T11:46:17.755Z,23.00
2018-11-28T11:48:46.666Z,23.23
2018-11-28T11:51:15.579Z,23.90
2018-11-28T11:53:44.483Z,24.55
2018-11-28T11:56:13.428Z,22.95
2018-11-28T11:58:42.360Z,21.83
2018-11-28T12:01:11.302Z,22.40
2018-11-28T12:03:40.223Z,23.10
2018-11-28T12:06:09.142Z,23.57
2018-11-28T12:08:38.047Z,22.93
2018-11-28T12:11:07.024Z,22.57
2018-11-28T12:13:35.930Z,23.05
2018-11-28T12:16:04.963Z,24.60
2018-11-28T12:18:33.893Z,23.15
2018-11-28T12:21:04.688Z,23.20
2018-11-28T12:23:33.603Z,24.07
2018-11-28T12:26:02.600Z,21.80
2018-11-28T12:28:31.535Z,22.20
2018-11-28T12:31:01.296Z,22.52
2018-11-28T12:33:30.212Z,22.93
2018-11-28T12:35:59.148Z,22.00
2018-11-28T12:38:28.088Z,22.20
2018-11-28T12:40:57.327Z,21.30
2018-11-28T12:43:26.235Z,20.80
2018-11-28T12:45:55.166Z,21.40
2018-11-28T12:48:24.101Z,21.65
2018-11-28T12:50:53.025Z,21.00
2018-11-28T12:53:21.936Z,20.97
2018-11-28T12:55:50.881Z,20.27
2018-11-28T12:58:20.757Z,20.27
2018-11-28T13:00:49.733Z,20.40
2018-11-28T13:03:19.254Z,19.43
2018-11-28T13:05:48.240Z,20.33
2018-11-28T13:08:17.166Z,19.87
2018-11-28T13:10:46.088Z,20.43
2018-11-28T13:13:15.058Z,21.15
2018-11-28T13:15:43.996Z,20.65
2018-11-28T13:18:12.926Z,21.03
2018-11-28T13:20:42.617Z,20.47
2018-11-28T13:23:13.771Z,21.20
2018-11-28T13:25:42.688Z,21.00
2018-11-28T13:28:11.660Z,20.17
2018-11-28T13:30:40.731Z,20.70
2018-11-28T13:33:09.724Z,20.62
2018-11-28T13:35:38.662Z,22.50
2018-11-28T13:38:10.557Z,22.80
2018-11-28T13:40:39.599Z,23.77
2018-11-28T13:43:08.556Z,22.27
2018-11-28T13:45:39.378Z,21.20
2018-11-28T13:48:09.427Z,21.37
2018-11-28T13:50:38.624Z,22.75
2018-11-28T13:53:13.678Z,25.83
2018-11-28T13:55:54.630Z,23.80
2018-11-28T13:58:14.642Z,23.22
2018-11-28T14:00:43.689Z,25.83
2018-11-28T14:03:12.645Z,26.75
2018-11-28T14:05:41.579Z,26.73
2018-11-28T14:08:10.509Z,26.45
2018-11-28T14:10:39.423Z,25.50
2018-11-28T14:13:08.383Z,26.62
2018-11-28T14:15:37.307Z,26.87
2018-11-28T14:18:10.967Z,27.40
2018-11-28T14:20:39.877Z,26.90
2018-11-28T14:23:08.975Z,26.80
2018-11-28T14:25:38.063Z,28.40
2018-11-28T14:28:07.395Z,29.53
2018-11-28T14:30:37.158Z,29.33
2018-11-28T14:33:06.058Z,26.30
2018-11-28T14:35:34.976Z,25.75
2018-11-28T14:38:03.874Z,26.33
2018-11-28T14:40:33.155Z,26.40
2018-11-28T14:43:02.156Z,27.60
2018-11-28T14:45:31.687Z,28.02
2018-11-28T14:48:00.608Z,27.10
2018-11-28T14:50:29.949Z,27.53
2018-11-28T14:52:59.975Z,28.27
2018-11-28T14:55:35.219Z,29.10
2018-11-28T14:58:04.152Z,27.70
2018-11-28T15:00:33.381Z,27.52
2018-11-28T15:03:10.792Z,26.77
2018-11-28T15:06:18.395Z,27.95
2018-11-28T15:08:47.343Z,27.07
2018-11-28T15:11:17.263Z,27.17
2018-11-28T15:13:46.193Z,27.53
2018-11-28T15:16:15.171Z,26.57
2018-11-28T15:18:44.157Z,25.92
2018-11-28T15:21:13.058Z,26.27
2018-11-28T15:23:42.019Z,26.20
2018-11-28T15:26:10.955Z,25.97
2018-11-28T15:28:40.552Z,26.95
2018-11-28T15:31:08.794Z,25.72
2018-11-28T15:33:37.736Z,24.93
2018-11-28T15:36:06.667Z,25.50
2018-11-28T15:38:35.602Z,28.93
2018-11-28T15:41:04.538Z,27.48
2018-11-28T15:43:33.456Z,24.65
2018-11-28T15:46:02.464Z,22.50
2018-11-28T15:48:31.383Z,25.00
2018-11-28T15:51:00.859Z,24.27
2018-11-28T15:53:29.786Z,23.32
2018-11-28T15:55:58.724Z,23.03
2018-11-28T15:58:27.655Z,23.23
2018-11-28T16:00:56.606Z,22.22
2018-11-28T16:03:25.502Z,23.40
2018-11-28T16:05:54.506Z,27.42
2018-11-28T16:08:23.425Z,25.45
2018-11-28T16:10:52.524Z,28.52
2018-11-28T16:13:21.472Z,29.30
2018-11-28T16:15:54.694Z,23.70
2018-11-28T16:18:24.634Z,22.65
2018-11-28T16:20:53.618Z,22.50
2018-11-28T16:23:22.652Z,22.95
2018-11-28T16:25:51.572Z,22.30
2018-11-28T16:28:20.520Z,21.07
2018-11-28T16:30:49.475Z,22.20
2018-11-28T16:33:18.402Z,21.67
2018-11-28T16:35:47.338Z,21.12
2018-11-28T16:38:16.303Z,22.50
2018-11-28T16:40:45.348Z,22.97
2018-11-28T16:43:14.242Z,21.90
2018-11-28T16:45:43.175Z,21.80
2018-11-28T16:48:12.095Z,22.20
2018-11-28T16:50:41.002Z,22.20
2018-11-28T16:53:09.944Z,22.50
2018-11-28T16:55:38.867Z,21.17
2018-11-28T16:58:08.373Z,22.35
2018-11-28T17:00:39.463Z,22.40
2018-11-28T17:03:08.389Z,22.52
2018-11-28T17:05:37.438Z,22.30
2018-11-28T17:08:08.096Z,20.80
2018-11-28T17:10:37.023Z,20.52
2018-11-28T17:13:06.728Z,22.82
2018-11-28T17:15:35.663Z,25.00
2018-11-28T17:18:04.666Z,23.60
2018-11-28T17:20:33.640Z,24.20
2018-11-28T17:23:02.566Z,22.15
2018-11-28T17:25:32.274Z,22.87
2018-11-28T17:28:01.199Z,22.97
2018-11-28T17:30:30.622Z,22.07
2018-11-28T17:32:59.632Z,22.52
2018-11-28T17:35:28.615Z,28.25
2018-11-28T17:37:57.606Z,21.87
2018-11-28T17:40:27.644Z,20.93
2018-11-28T17:42:57.678Z,22.22
2018-11-28T17:45:27.163Z,21.60
2018-11-28T17:47:56.102Z,22.35
2018-11-28T17:50:25.955Z,26.73
2018-11-28T17:52:56.620Z,22.10
2018-11-28T17:55:26.608Z,55.03
2018-11-28T17:57:55.543Z,41.60
2018-11-28T18:00:24.456Z,24.40
2018-11-28T18:02:53.474Z,21.55
2018-11-28T18:05:22.451Z,26.03
2018-11-28T18:07:51.403Z,24.60
2018-11-28T18:10:21.372Z,22.93
2018-11-28T18:13:06.162Z,25.52
2018-11-28T18:15:35.107Z,26.40
2018-11-28T18:18:04.275Z,23.83
2018-11-28T18:20:33.227Z,22.80
2018-11-28T18:23:02.140Z,20.70
2018-11-28T18:25:31.831Z,22.00
2018-11-28T18:28:00.762Z,23.10
2018-11-28T18:30:29.707Z,22.20
2018-11-28T18:32:59.052Z,23.02
2018-11-28T18:35:28.083Z,22.67
2018-11-28T18:37:57.010Z,21.70
2018-11-28T18:40:25.987Z,21.37
2018-11-28T18:42:55.730Z,25.37
2018-11-28T18:45:26.212Z,22.60
2018-11-28T18:47:55.135Z,22.03
2018-11-28T18:50:24.068Z,21.13
2018-11-28T18:52:52.990Z,22.05
2018-11-28T18:55:22.210Z,22.30
2018-11-28T18:57:52.600Z,22.54
2018-11-28T19:00:22.707Z,22.40
2018-11-28T19:02:52.135Z,22.03
2018-11-28T19:05:21.140Z,23.37
2018-11-28T19:07:50.103Z,22.30
2018-11-28T19:10:26.349Z,21.52
2018-11-28T19:12:52.715Z,20.70
2018-11-28T19:15:24.773Z,23.25
2018-11-28T19:17:54.338Z,22.00
2018-11-28T19:20:23.653Z,22.77
2018-11-28T19:22:53.623Z,23.02
2018-11-28T19:25:23.594Z,22.48
2018-11-28T19:27:52.943Z,22.83
2018-11-28T19:30:31.132Z,21.80
2018-11-28T19:32:58.581Z,22.98
2018-11-28T19:35:27.473Z,38.40
2018-11-28T19:37:56.424Z,26.77
2018-11-28T19:40:32.163Z,26.00
2018-11-28T19:43:01.074Z,23.50
2018-11-28T19:45:31.105Z,23.75
2018-11-28T19:48:00.885Z,22.35
2018-11-28T19:50:34.829Z,21.20
2018-11-28T19:53:03.806Z,24.27
2018-11-28T19:55:32.739Z,22.73
2018-11-28T19:58:01.683Z,22.62
2018-11-28T20:00:30.644Z,21.93
2018-11-28T20:02:59.639Z,21.40
2018-11-28T20:05:28.590Z,22.93
2018-11-28T20:07:57.532Z,23.23
2018-11-28T20:10:26.529Z,22.80
2018-11-28T20:12:55.450Z,22.43
2018-11-28T20:15:26.896Z,23.45
2018-11-28T20:17:56.007Z,22.10
2018-11-28T20:20:24.937Z,23.10
2018-11-28T20:22:53.850Z,24.95
2018-11-28T20:25:23.872Z,23.27
2018-11-28T20:27:58.886Z,23.42
2018-11-28T20:30:34.261Z,23.60
2018-11-28T20:33:03.199Z,24.07
2018-11-28T20:35:32.224Z,23.30
2018-11-28T20:38:01.143Z,24.50
2018-11-28T20:40:30.078Z,24.80
2018-11-28T20:42:59.075Z,23.60
2018-11-28T20:45:27.991Z,23.80
2018-11-28T20:47:57.143Z,24.23
2018-11-28T20:50:28.579Z,24.73
2018-11-28T20:53:04.583Z,23.47
2018-11-28T20:55:33.555Z,24.50
2018-11-28T20:58:02.479Z,24.12
2018-11-28T21:00:31.529Z,24.37
2018-11-28T21:03:00.324Z,24.53
2018-11-28T21:05:29.243Z,24.95
2018-11-28T21:07:58.171Z,24.93
2018-11-28T21:10:33.350Z,24.80
2018-11-28T21:13:01.540Z,24.90
2018-11-28T21:15:30.302Z,24.85
2018-11-28T21:17:59.213Z,23.43
2018-11-28T21:20:28.194Z,25.20
2018-11-28T21:22:58.539Z,25.47
2018-11-28T21:25:27.486Z,25.12
2018-11-28T21:27:56.406Z,25.80
2018-11-28T21:30:25.443Z,26.33
2018-11-28T21:32:55.007Z,26.20
2018-11-28T21:35:33.118Z,26.80
2018-11-28T21:38:02.044Z,25.75
2018-11-28T21:40:30.983Z,27.13
2018-11-28T21:42:59.915Z,26.90
2018-11-28T21:45:28.843Z,26.87
2018-11-28T21:47:57.763Z,26.93
2018-11-28T21:50:26.754Z,26.87
2018-11-28T21:52:55.667Z,26.97
2018-11-28T21:55:25.007Z,26.20
2018-11-28T21:57:53.963Z,27.17
2018-11-28T22:00:26.810Z,26.37
2018-11-28T22:02:55.734Z,25.53
2018-11-28T22:05:25.149Z,26.57
2018-11-28T22:07:54.115Z,26.30
2018-11-28T22:10:24.112Z,26.33
2018-11-28T22:12:54.293Z,25.55
2018-11-28T22:15:23.267Z,25.17
2018-11-28T22:17:57.035Z,27.17
2018-11-28T22:20:26.631Z,25.25
2018-11-28T22:22:55.632Z,25.10
2018-11-28T22:25:25.540Z,25.30
2018-11-28T22:27:54.692Z,25.27
2018-11-28T22:30:25.475Z,25.40
2018-11-28T22:32:54.402Z,25.90
2018-11-28T22:35:23.359Z,25.65
2018-11-28T22:37:53.344Z,25.70
2018-11-28T22:40:30.119Z,24.92
2018-11-28T22:42:59.129Z,25.60
2018-11-28T22:45:30.379Z,25.30
2018-11-28T22:47:59.315Z,24.98
2018-11-28T22:50:28.210Z,25.20
2018-11-28T22:52:57.130Z,26.40
2018-11-28T22:55:26.519Z,25.55
2018-11-28T22:57:55.396Z,25.20
2018-11-28T23:00:31.191Z,24.63
2018-11-28T23:03:07.424Z,24.35
2018-11-28T23:05:39.501Z,24.87
2018-11-28T23:08:09.428Z,25.20
2018-11-28T23:10:38.922Z,24.87
2018-11-28T23:13:08.760Z,24.10
2018-11-28T23:15:37.719Z,24.35
2018-11-28T23:18:07.574Z,25.08
2018-11-28T23:20:36.582Z,24.25
2018-11-28T23:23:06.471Z,25.12
2018-11-28T23:25:35.397Z,25.55
2018-11-28T23:28:04.299Z,25.57
2018-11-28T23:30:33.206Z,24.85
2018-11-28T23:33:02.499Z,26.25
2018-11-28T23:35:31.664Z,26.02
2018-11-28T23:38:00.572Z,25.68
2018-11-28T23:40:29.514Z,25.72
2018-11-28T23:42:58.406Z,26.13
2018-11-28T23:45:27.466Z,26.60
2018-11-28T23:47:56.347Z,27.52
2018-11-28T23:50:25.937Z,26.52
2018-11-28T23:52:55.717Z,27.00
2018-11-28T23:55:25.607Z,26.30
2018-11-28T23:57:54.694Z,26.17
